Forside
METAR-TAF:

METAR-TAF

Lufthavne :

Singapore Changi Airport

Singapore, Singapore

Breddekreds: 01-22N, længdekreds: 103-59E, højde: 5 m

Aktuelle vejr

Denne rapport blev lavet for 9 minutter siden, kl. 17:00 UTC
Vind 2 kt fra varierende retninger
Temperatur 27°C
Fugtighed 79%
Tryk 1011 hPa
Sigt 10 km eller mere
Nogle få skyer i en højde af 1800 ft
Brudte skyer i en højde af 14000 ft

METAR: WSSS 251700Z VRB02KT 9999 FEW018 BKN140 27/23 Q1011 NOSIG

Tid: 01:09 (17:09 UTC)

Vejrudsigter

Denne rapport blev lavet for 6 timer og 9 minutter siden, kl. 11:00 UTC
Foreløbig gælder fra 25 på 12 UTC til 26 på 18 UTC
Vind 9 kt fra syd
Sigt 10 km eller mere
Nogle få skyer i en højde af 1800 ft, Cumulonimbus.
Spredte skyer i en højde af 2000 ft
Midlertidig
fra 26 på 04 UTC til 26 på 07 UTC
Sigt: 3000 m
Nogle få skyer i en højde af 1200 ft, Cumulonimbus.
Brudte skyer i en højde af 1500 ft
tordenbyger, regn

TAF: WSSS 251100Z 2512/2618 17009KT 9999 FEW018CB SCT020 TEMPO 2604/2607 3000 TSRA FEW012CB BKN015

Vejrobservationer og prognoser fra mere end 4000 lufthavne (METAR og TAF).

De gule og røde prikker repræsenterer de meteorologiske stationer.

Flyt musen over at se navnet på stationen.

Så klik over at se vejr observationer og prognoser.

At skifte det kort: Klik på de grønne knapper med et sort kors for at zoome ind; på den grønne knap med en bindestreg for at zoome ud; eller på de grønne pile for tilstødende kort.


METAR-TAF: